Time;durP1;ratioP1;P1;durP2;ratioP2;P2;SDS_P1;SDS_P2;PMS_P1;PMS_P2;Temp;Humidity;BMP_temperature;BMP_pressure;BME280_temperature;BME280_humidity;BME280_pressure;Samples;Min_cycle;Max_cycle;Signal;HPM_P1;HPM_P2
2024/02/07 00:02:03;;;;;;;4.00;2.73;;;9.70;99.90;;;;;;5001124;28;20464;-83
2024/02/07 00:04:31;;;;;;;6.53;2.50;;;9.70;99.90;;;;;;5002022;28;20564;-81
2024/02/07 00:06:58;;;;;;;5.03;3.03;;;9.70;99.90;;;;;;4997206;28;20454;-83
2024/02/07 00:09:25;;;;;;;3.03;1.53;;;9.70;99.90;;;;;;5000901;28;21045;-81
2024/02/07 00:11:52;;;;;;;3.42;1.63;;;9.70;99.90;;;;;;5002729;28;20470;-80
2024/02/07 00:14:18;;;;;;;8.90;2.03;;;9.70;99.90;;;;;;5000406;28;20338;-79
2024/02/07 00:16:45;;;;;;;5.20;3.00;;;9.70;99.90;;;;;;5002841;28;20495;-80
2024/02/07 00:19:13;;;;;;;4.07;2.80;;;9.70;99.90;;;;;;4997068;28;20460;-77
2024/02/07 00:21:40;;;;;;;5.03;2.57;;;9.70;99.90;;;;;;4997046;28;20950;-79
2024/02/07 00:24:07;;;;;;;1.90;1.80;;;9.70;99.90;;;;;;4995454;28;20482;-79
2024/02/07 00:26:36;;;;;;;3.87;1.50;;;9.70;99.90;;;;;;4994848;28;20460;-76
2024/02/07 00:29:03;;;;;;;6.10;2.93;;;9.70;99.90;;;;;;4997133;28;20479;-79
2024/02/07 00:31:29;;;;;;;2.60;1.47;;;9.70;99.90;;;;;;4996761;28;20451;-77
2024/02/07 00:33:56;;;;;;;5.17;2.00;;;9.70;99.90;;;;;;4997918;28;20492;-79
2024/02/07 00:36:24;;;;;;;1.30;1.20;;;9.70;99.90;;;;;;5002261;28;20460;-78
2024/02/07 00:38:51;;;;;;;2.87;2.67;;;9.70;99.90;;;;;;4996142;28;20490;-79
2024/02/07 00:41:22;;;;;;;3.63;3.03;;;9.70;99.90;;;;;;4998163;28;20458;-80
2024/02/07 00:43:49;;;;;;;2.70;2.50;;;9.70;99.90;;;;;;5000475;28;20543;-79
2024/02/07 00:46:15;;;;;;;3.63;2.50;;;9.70;99.90;;;;;;5002121;28;20448;-77
2024/02/07 00:48:42;;;;;;;5.27;3.10;;;9.80;99.90;;;;;;5003041;28;20999;-79
2024/02/07 00:51:09;;;;;;;1.90;1.80;;;9.80;99.90;;;;;;5004999;28;20456;-79
2024/02/07 00:53:38;;;;;;;3.77;2.73;;;9.80;99.90;;;;;;5002779;28;20516;-78
2024/02/07 00:56:05;;;;;;;3.97;2.27;;;9.80;99.90;;;;;;5003324;28;20502;-79
2024/02/07 00:58:31;;;;;;;2.33;2.13;;;9.80;99.90;;;;;;5003647;28;20440;-78
2024/02/07 01:00:58;;;;;;;2.40;1.87;;;9.80;99.90;;;;;;4993544;28;20981;-79
2024/02/07 01:03:25;;;;;;;3.13;2.27;;;9.80;99.90;;;;;;4993557;28;20467;-79
2024/02/07 01:05:52;;;;;;;7.03;3.27;;;9.80;99.90;;;;;;4998148;28;20811;-78
2024/02/07 01:08:19;;;;;;;1.60;1.50;;;9.80;99.90;;;;;;4998269;28;20460;-79
2024/02/07 01:10:47;;;;;;;4.20;3.33;;;9.90;99.90;;;;;;5002099;28;20835;-78
2024/02/07 01:13:14;;;;;;;1.43;1.33;;;9.90;99.90;;;;;;5000919;28;20451;-79
2024/02/07 01:15:41;;;;;;;1.47;1.40;;;9.90;99.90;;;;;;5001930;28;20543;-79
2024/02/07 01:18:08;;;;;;;3.60;2.20;;;9.90;99.90;;;;;;5003422;28;20444;-79
2024/02/07 01:20:35;;;;;;;1.60;1.50;;;9.90;99.90;;;;;;5003938;28;20468;-79
2024/02/07 01:23:02;;;;;;;1.63;1.53;;;9.90;99.90;;;;;;5002154;28;20468;-79
2024/02/07 01:25:29;;;;;;;5.60;2.20;;;9.90;99.90;;;;;;5003669;28;20440;-79
2024/02/07 01:27:57;;;;;;;2.90;2.70;;;9.90;99.90;;;;;;5001454;28;20932;-78
2024/02/07 01:30:24;;;;;;;3.77;2.40;;;9.90;99.90;;;;;;5001822;28;20559;-79
2024/02/07 01:32:50;;;;;;;2.50;2.10;;;9.90;99.90;;;;;;4999792;28;20440;-78
2024/02/07 01:35:17;;;;;;;5.13;1.70;;;10.00;99.90;;;;;;5000023;28;20484;-79
2024/02/07 01:37:45;;;;;;;9.47;4.53;;;10.00;99.90;;;;;;5001063;28;20440;-79
2024/02/07 01:40:13;;;;;;;4.53;4.13;;;10.00;99.90;;;;;;5002141;28;20463;-78
2024/02/07 01:42:41;;;;;;;2.30;2.07;;;9.90;99.90;;;;;;4998944;28;20448;-79
2024/02/07 01:45:22;;;;;;;2.58;2.22;;;10.00;99.90;;;;;;5000583;28;20501;-79
2024/02/07 01:47:50;;;;;;;8.40;2.03;;;10.00;99.90;;;;;;4993800;28;20225;-78
2024/02/07 01:50:17;;;;;;;3.00;2.30;;;9.90;99.90;;;;;;5000174;28;20551;-79
2024/02/07 01:52:46;;;;;;;1.83;1.70;;;9.90;99.90;;;;;;5001099;28;20539;-79
2024/02/07 01:55:14;;;;;;;1.88;1.77;;;9.90;99.90;;;;;;5000988;28;20483;-78
2024/02/07 01:57:41;;;;;;;4.85;3.13;;;9.90;99.90;;;;;;5000890;28;20304;-78
2024/02/07 02:00:10;;;;;;;1.58;0.85;;;9.90;99.90;;;;;;5000796;28;20234;-79
2024/02/07 02:02:38;;;;;;;0.90;0.90;;;9.90;99.90;;;;;;4999019;28;20643;-79
2024/02/07 02:05:05;;;;;;;6.60;2.43;;;9.90;99.90;;;;;;5001028;28;20272;-79
2024/02/07 02:07:33;;;;;;;1.15;1.15;;;9.90;99.90;;;;;;5000033;28;20519;-79
2024/02/07 02:10:00;;;;;;;4.57;2.25;;;9.90;99.90;;;;;;4998500;28;20320;-79
2024/02/07 02:12:27;;;;;;;3.63;3.42;;;9.90;99.90;;;;;;5000265;28;20284;-79
2024/02/07 02:14:54;;;;;;;3.35;2.13;;;9.90;99.90;;;;;;5002581;28;20215;-79
2024/02/07 02:17:21;;;;;;;1.60;1.50;;;9.90;99.90;;;;;;5000817;28;20280;-79
2024/02/07 02:19:50;;;;;;;1.77;1.67;;;9.80;99.90;;;;;;4995429;28;20300;-79
2024/02/07 02:23:01;;;;;;;1.40;1.30;;;9.80;99.90;;;;;;5000803;28;20193;-76
2024/02/07 02:25:58;;;;;;;5.23;1.00;;;9.80;99.90;;;;;;4964487;28;20197;-79
2024/02/07 02:28:37;;;;;;;3.13;2.70;;;9.80;99.90;;;;;;5000333;28;20444;-78
2024/02/07 02:31:14;;;;;;;2.80;2.60;;;9.80;99.90;;;;;;4997595;28;20527;-79
2024/02/07 02:33:42;;;;;;;1.58;1.42;;;9.80;99.90;;;;;;4998785;28;20219;-79
2024/02/07 02:36:10;;;;;;;2.88;1.25;;;9.80;99.90;;;;;;4999909;28;20219;-79
2024/02/07 02:38:37;;;;;;;0.97;0.90;;;9.80;99.90;;;;;;4998219;28;20251;-79
2024/02/07 02:41:07;;;;;;;0.40;0.30;;;9.80;99.90;;;;;;4999725;28;20472;-79
2024/02/07 02:43:36;;;;;;;1.37;1.27;;;9.70;99.90;;;;;;4999629;28;20448;-78
2024/02/07 02:46:05;;;;;;;0.40;0.30;;;9.30;99.90;;;;;;5000621;28;20487;-77
2024/02/07 02:48:32;;;;;;;0.40;0.40;;;9.10;99.90;;;;;;5001840;28;20448;-79
2024/02/07 02:51:00;;;;;;;1.30;1.25;;;8.90;99.90;;;;;;5001745;28;20475;-79
2024/02/07 02:53:31;;;;;;;0.70;0.70;;;8.80;99.90;;;;;;5000634;28;20204;-79
2024/02/07 02:55:58;;;;;;;0.60;0.50;;;8.70;99.90;;;;;;4999862;28;20484;-79
2024/02/07 02:58:29;;;;;;;0.40;0.40;;;8.40;99.90;;;;;;5003396;28;20261;-78
2024/02/07 03:00:56;;;;;;;0.60;0.60;;;8.10;99.90;;;;;;4994891;28;20197;-79
2024/02/07 03:03:26;;;;;;;0.40;0.40;;;7.50;99.90;;;;;;5001743;28;20201;-79
2024/02/07 03:05:58;;;;;;;0.75;0.50;;;7.30;99.90;;;;;;4994886;28;20221;-79
2024/02/07 03:08:39;;;;;;;0.65;0.50;;;7.20;99.90;;;;;;5002854;28;20201;-78
2024/02/07 03:11:07;;;;;;;1.40;1.13;;;7.00;99.90;;;;;;4998013;28;20193;-80
2024/02/07 03:13:34;;;;;;;0.40;0.40;;;6.80;99.90;;;;;;5002491;28;20562;-79
2024/02/07 03:16:05;;;;;;;0.40;0.40;;;6.70;99.90;;;;;;4996509;28;20304;-79
2024/02/07 03:18:35;;;;;;;0.40;0.40;;;6.50;99.90;;;;;;5001609;28;20205;-79
2024/02/07 03:21:02;;;;;;;0.60;0.60;;;6.20;99.90;;;;;;5003057;28;20248;-80
2024/02/07 03:23:29;;;;;;;1.98;1.88;;;6.10;99.90;;;;;;5001831;28;20289;-77
2024/02/07 03:25:56;;;;;;;0.40;0.40;;;5.90;99.90;;;;;;5003349;28;20193;-80
2024/02/07 03:28:23;;;;;;;0.40;0.40;;;5.80;99.90;;;;;;5003064;28;20653;-79
2024/02/07 03:30:50;;;;;;;0.40;0.30;;;5.70;99.90;;;;;;5002216;28;20212;-80
2024/02/07 03:33:17;;;;;;;0.63;0.60;;;5.70;99.90;;;;;;5002365;28;20200;-79
2024/02/07 03:35:45;;;;;;;0.40;0.40;;;5.60;99.90;;;;;;5002089;28;20221;-79
2024/02/07 03:38:13;;;;;;;1.73;1.35;;;5.50;99.90;;;;;;5003120;28;20571;-80
2024/02/07 03:40:39;;;;;;;0.40;0.40;;;5.40;99.90;;;;;;5001393;28;20223;-80
2024/02/07 03:43:07;;;;;;;0.40;0.40;;;5.40;99.90;;;;;;5005540;28;20260;-79
2024/02/07 03:45:33;;;;;;;0.40;0.40;;;5.40;99.90;;;;;;5006530;28;20645;-79
2024/02/07 03:48:01;;;;;;;0.40;0.40;;;5.30;99.90;;;;;;5006476;28;20201;-80
2024/02/07 03:50:27;;;;;;;0.47;0.40;;;5.30;99.90;;;;;;5007307;28;20217;-77
2024/02/07 03:52:56;;;;;;;0.40;0.40;;;5.30;99.90;;;;;;5006020;28;20201;-79
2024/02/07 03:55:22;;;;;;;0.40;0.40;;;5.30;99.90;;;;;;5004197;28;20220;-77
2024/02/07 03:57:49;;;;;;;0.40;0.40;;;5.40;99.90;;;;;;5004637;28;20284;-78
2024/02/07 04:00:17;;;;;;;0.40;0.38;;;5.40;99.90;;;;;;5006399;28;20223;-80
2024/02/07 04:02:46;;;;;;;0.40;0.40;;;5.40;99.90;;;;;;5005069;28;20288;-80
2024/02/07 04:05:13;;;;;;;0.40;0.40;;;5.40;99.90;;;;;;5006785;28;20276;-80
2024/02/07 04:07:40;;;;;;;0.40;0.40;;;5.40;99.90;;;;;;5008560;28;20204;-77
2024/02/07 04:10:11;;;;;;;0.40;0.40;;;5.40;99.90;;;;;;5008082;28;20284;-79
2024/02/07 05:15:40;;;;;;;0.40;0.40;;;4.90;99.90;;;;;;4992300;28;20608;-77
2024/02/07 05:18:06;;;;;;;0.40;0.40;;;4.90;99.90;;;;;;4992176;28;20588;-80
2024/02/07 05:20:33;;;;;;;0.40;0.40;;;4.90;99.90;;;;;;4995848;28;20213;-80
2024/02/07 05:23:00;;;;;;;0.40;0.30;;;4.80;99.90;;;;;;4995107;28;20208;-79
2024/02/07 05:25:27;;;;;;;0.40;0.40;;;4.80;99.90;;;;;;4996601;28;20766;-82
2024/02/07 05:27:54;;;;;;;0.40;0.40;;;4.80;99.90;;;;;;5004323;28;20204;-84
2024/02/07 05:30:21;;;;;;;0.40;0.40;;;4.80;99.90;;;;;;4995903;28;20224;-84
2024/02/07 05:32:49;;;;;;;0.40;0.40;;;4.70;99.90;;;;;;5000637;28;20207;-80
2024/02/07 05:35:16;;;;;;;0.40;0.40;;;4.70;99.90;;;;;;5009226;28;20281;-83
2024/02/07 05:37:42;;;;;;;0.40;0.40;;;4.70;99.90;;;;;;5004545;28;20201;-82
2024/02/07 05:40:10;;;;;;;0.40;0.40;;;4.60;99.90;;;;;;4993286;28;20252;-80
2024/02/07 05:42:37;;;;;;;0.40;0.40;;;4.60;99.90;;;;;;4994988;28;20203;-80
2024/02/07 05:45:05;;;;;;;0.43;0.40;;;4.50;99.90;;;;;;4994451;28;20193;-81
2024/02/07 05:47:32;;;;;;;0.40;0.40;;;4.40;99.90;;;;;;4996167;28;20203;-80
2024/02/07 05:50:00;;;;;;;0.40;0.40;;;4.40;99.90;;;;;;4999003;28;20226;-81
2024/02/07 05:52:27;;;;;;;0.40;0.40;;;4.30;99.90;;;;;;4998297;28;20291;-81
2024/02/07 05:54:57;;;;;;;0.40;0.40;;;4.20;99.90;;;;;;4999070;28;20208;-80
2024/02/07 05:57:24;;;;;;;0.40;0.40;;;4.30;99.90;;;;;;4996276;28;20245;-79
2024/02/07 05:59:50;;;;;;;0.40;0.40;;;4.20;99.90;;;;;;4995501;28;20227;-80
2024/02/07 06:02:18;;;;;;;0.40;0.40;;;4.20;99.90;;;;;;5003946;28;20332;-77
2024/02/07 06:04:49;;;;;;;0.40;0.40;;;4.20;99.90;;;;;;5000770;28;20675;-79
2024/02/07 06:07:17;;;;;;;0.98;0.98;;;4.20;99.90;;;;;;5001471;28;20256;-80
2024/02/07 06:09:45;;;;;;;0.40;0.40;;;4.10;99.90;;;;;;5000274;28;20229;-78
2024/02/07 06:12:12;;;;;;;0.40;0.40;;;4.10;99.90;;;;;;5002244;28;20193;-80
2024/02/07 06:14:39;;;;;;;0.40;0.40;;;4.00;99.90;;;;;;5000786;28;20204;-79
2024/02/07 06:17:07;;;;;;;0.40;0.40;;;4.00;99.90;;;;;;5001991;28;20214;-80
2024/02/07 06:19:34;;;;;;;0.40;0.40;;;4.00;99.90;;;;;;5000708;28;20257;-81
2024/02/07 06:22:01;;;;;;;0.40;0.40;;;3.90;99.90;;;;;;5001893;28;20209;-80
2024/02/07 06:24:29;;;;;;;0.40;0.40;;;3.80;99.90;;;;;;5001666;28;20639;-80
2024/02/07 06:26:57;;;;;;;0.43;0.40;;;3.70;99.90;;;;;;5002511;28;20296;-80
2024/02/07 06:29:23;;;;;;;0.40;0.40;;;3.70;99.90;;;;;;5001518;28;20275;-79
2024/02/07 06:31:50;;;;;;;0.40;0.40;;;3.60;99.90;;;;;;4999683;28;20205;-80
2024/02/07 06:34:17;;;;;;;0.40;0.40;;;3.70;99.90;;;;;;5002928;28;20265;-80
2024/02/07 06:36:44;;;;;;;0.40;0.40;;;3.60;99.90;;;;;;5002346;28;20225;-80
2024/02/07 06:39:10;;;;;;;0.40;0.40;;;3.70;99.90;;;;;;5003350;28;20220;-81
2024/02/07 06:41:39;;;;;;;1.02;1.02;;;3.70;99.90;;;;;;5003672;28;20208;-80
2024/02/07 06:44:06;;;;;;;0.40;0.40;;;3.70;99.90;;;;;;5002675;28;20654;-81
2024/02/07 06:46:32;;;;;;;0.40;0.35;;;3.50;99.90;;;;;;5003495;28;20228;-80
2024/02/07 06:48:59;;;;;;;0.40;0.40;;;3.50;99.90;;;;;;5002543;28;20227;-80
2024/02/07 06:51:26;;;;;;;0.43;0.40;;;3.50;99.90;;;;;;5002115;28;20626;-81
2024/02/07 06:53:53;;;;;;;0.43;0.40;;;3.60;99.90;;;;;;5001240;28;20268;-79
2024/02/07 06:56:19;;;;;;;0.40;0.40;;;3.60;99.90;;;;;;5001346;28;20296;-80
2024/02/07 06:58:48;;;;;;;0.40;0.40;;;3.60;99.90;;;;;;4993966;28;20207;-82
2024/02/07 07:01:16;;;;;;;0.40;0.40;;;3.50;99.90;;;;;;4994414;28;20288;-82
2024/02/07 07:03:42;;;;;;;0.40;0.40;;;3.50;99.90;;;;;;4993918;28;20208;-80
2024/02/07 07:06:09;;;;;;;1.10;1.00;;;3.50;99.90;;;;;;4993757;28;20683;-81
2024/02/07 07:08:36;;;;;;;0.40;0.40;;;3.50;99.90;;;;;;4994146;28;20652;-81
2024/02/07 07:11:03;;;;;;;0.40;0.40;;;3.60;99.90;;;;;;4993817;28;20205;-81
2024/02/07 07:13:30;;;;;;;0.40;0.40;;;3.60;99.90;;;;;;4994650;28;20220;-82
2024/02/07 07:15:58;;;;;;;0.65;0.65;;;3.60;99.90;;;;;;4994104;28;20268;-82
2024/02/07 07:18:24;;;;;;;0.70;0.70;;;3.70;99.90;;;;;;4994331;28;20192;-82
2024/02/07 07:20:51;;;;;;;0.40;0.40;;;3.70;99.90;;;;;;4994739;28;20679;-81
2024/02/07 07:23:18;;;;;;;0.40;0.40;;;3.80;99.90;;;;;;4994109;28;20554;-80
2024/02/07 07:25:45;;;;;;;0.50;0.40;;;3.70;99.90;;;;;;4994709;28;20207;-82
2024/02/07 07:28:12;;;;;;;0.40;0.40;;;3.70;99.90;;;;;;4994126;28;20197;-82
2024/02/07 07:30:39;;;;;;;0.40;0.40;;;3.70;99.90;;;;;;4994494;28;20221;-82
2024/02/07 07:33:08;;;;;;;0.40;0.40;;;3.70;99.90;;;;;;4994985;28;20216;-81
2024/02/07 07:35:34;;;;;;;0.40;0.40;;;3.70;99.90;;;;;;4995755;28;20744;-81
2024/02/07 07:38:04;;;;;;;0.40;0.40;;;3.80;99.90;;;;;;4994016;28;20201;-82
2024/02/07 07:40:31;;;;;;;0.40;0.40;;;3.70;99.90;;;;;;4994485;28;20225;-79
2024/02/07 07:42:58;;;;;;;0.90;0.90;;;3.80;99.90;;;;;;4993943;28;20212;-82
2024/02/07 07:45:25;;;;;;;0.60;0.60;;;3.80;99.90;;;;;;4993837;28;20204;-82
2024/02/07 07:47:52;;;;;;;0.80;0.80;;;3.80;99.90;;;;;;4993431;28;20289;-82
2024/02/07 07:50:20;;;;;;;0.40;0.40;;;3.90;99.90;;;;;;4986040;28;20691;-82
2024/02/07 07:52:47;;;;;;;0.40;0.40;;;3.80;99.90;;;;;;4993390;28;20641;-81
2024/02/07 07:55:15;;;;;;;0.40;0.40;;;3.90;99.90;;;;;;4993761;28;20576;-81
2024/02/07 07:57:42;;;;;;;1.05;1.05;;;3.90;99.90;;;;;;4994138;28;20224;-79
2024/02/07 08:00:09;;;;;;;0.40;0.40;;;3.90;99.90;;;;;;4993368;28;20223;-81
2024/02/07 08:02:36;;;;;;;0.80;0.80;;;3.90;99.90;;;;;;4993801;28;20256;-81
2024/02/07 08:05:03;;;;;;;0.40;0.40;;;3.90;99.90;;;;;;4993770;28;20201;-80
2024/02/07 08:07:31;;;;;;;0.40;0.40;;;3.90;99.90;;;;;;4993835;28;20200;-81
2024/02/07 08:09:58;;;;;;;0.60;0.60;;;3.90;99.90;;;;;;4993436;28;20225;-81
2024/02/07 08:12:25;;;;;;;2.40;1.58;;;3.90;99.90;;;;;;4993386;28;20205;-81
2024/02/07 08:14:52;;;;;;;5.07;2.15;;;3.90;99.90;;;;;;4993649;28;20211;-82
2024/02/07 08:17:19;;;;;;;0.40;0.40;;;3.90;99.90;;;;;;4993535;28;20217;-81
2024/02/07 08:19:46;;;;;;;0.40;0.40;;;3.90;99.90;;;;;;4993051;28;20217;-82
2024/02/07 08:22:13;;;;;;;5.15;2.55;;;3.90;99.90;;;;;;4993573;28;20201;-81
2024/02/07 08:24:41;;;;;;;0.40;0.40;;;4.00;99.90;;;;;;4993633;28;20292;-82
2024/02/07 08:27:08;;;;;;;0.40;0.40;;;4.00;99.90;;;;;;4993363;28;20197;-81
2024/02/07 08:29:35;;;;;;;3.80;1.88;;;4.00;99.90;;;;;;4995959;28;20223;-81
2024/02/07 08:32:02;;;;;;;0.40;0.40;;;4.10;99.90;;;;;;4997247;28;20207;-81
2024/02/07 08:34:29;;;;;;;2.00;1.90;;;4.10;99.90;;;;;;4996994;28;20201;-82
2024/02/07 08:36:55;;;;;;;0.40;0.40;;;4.10;99.90;;;;;;4996895;28;20582;-82
2024/02/07 08:39:22;;;;;;;0.40;0.40;;;4.10;99.90;;;;;;4988944;28;20223;-82
2024/02/07 08:41:50;;;;;;;0.40;0.40;;;4.10;99.90;;;;;;4997015;28;20205;-81
2024/02/07 08:44:17;;;;;;;0.40;0.40;;;4.00;99.90;;;;;;5014054;28;20205;-80
2024/02/07 08:46:46;;;;;;;4.50;2.60;;;4.00;99.90;;;;;;5008842;28;20197;-81
2024/02/07 08:49:16;;;;;;;0.40;0.40;;;4.10;99.90;;;;;;4996610;28;20763;-81
2024/02/07 08:51:44;;;;;;;0.60;0.60;;;4.10;99.90;;;;;;4997293;28;20558;-81
2024/02/07 08:54:11;;;;;;;0.40;0.40;;;4.20;99.90;;;;;;4995862;28;20212;-81
2024/02/07 08:56:37;;;;;;;0.40;0.30;;;4.30;99.90;;;;;;4997050;28;20217;-81
2024/02/07 08:59:05;;;;;;;0.47;0.40;;;4.30;99.90;;;;;;4996716;28;20254;-81
2024/02/07 09:01:32;;;;;;;0.50;0.40;;;4.40;99.90;;;;;;4997165;28;20202;-78
2024/02/07 09:03:59;;;;;;;0.50;0.40;;;4.40;99.90;;;;;;4996165;28;20624;-78
2024/02/07 09:06:26;;;;;;;0.45;0.45;;;4.40;99.90;;;;;;4996437;28;20276;-81
2024/02/07 09:08:53;;;;;;;0.50;0.45;;;4.50;99.90;;;;;;4996335;28;20316;-81
2024/02/07 09:11:19;;;;;;;0.40;0.40;;;4.50;99.90;;;;;;4996567;28;20201;-81
2024/02/07 09:13:46;;;;;;;0.47;0.40;;;4.50;99.90;;;;;;4996284;28;20205;-80
2024/02/07 09:16:14;;;;;;;0.40;0.40;;;4.60;99.90;;;;;;4999643;28;20205;-80
2024/02/07 09:18:43;;;;;;;0.60;0.60;;;4.60;99.90;;;;;;4997195;28;20624;-82
2024/02/07 09:21:09;;;;;;;0.40;0.40;;;4.50;99.90;;;;;;4996758;28;20687;-83
2024/02/07 09:23:36;;;;;;;0.50;0.40;;;4.60;99.90;;;;;;4996855;28;20264;-80
2024/02/07 09:26:04;;;;;;;0.90;0.90;;;4.60;99.90;;;;;;4997315;28;20201;-81
2024/02/07 09:28:31;;;;;;;1.02;0.88;;;4.70;99.90;;;;;;4997427;28;20197;-83
2024/02/07 09:30:58;;;;;;;0.43;0.40;;;4.70;99.90;;;;;;4998250;28;20232;-82
2024/02/07 09:33:26;;;;;;;0.50;0.50;;;4.80;99.90;;;;;;4996880;28;20668;-82
2024/02/07 09:35:52;;;;;;;0.55;0.55;;;4.90;99.90;;;;;;4996479;28;20197;-82
2024/02/07 09:38:21;;;;;;;0.40;0.40;;;4.90;99.90;;;;;;4995953;28;20227;-82
2024/02/07 09:40:50;;;;;;;0.60;0.57;;;4.80;99.90;;;;;;4996223;28;20712;-83
2024/02/07 09:43:18;;;;;;;33.20;3.70;;;4.70;99.90;;;;;;4996912;28;20201;-84
2024/02/07 09:45:48;;;;;;;0.50;0.50;;;4.70;99.90;;;;;;4996121;28;20716;-82
2024/02/07 09:48:20;;;;;;;0.50;0.40;;;4.70;99.90;;;;;;4995669;28;20271;-82
2024/02/07 09:50:50;;;;;;;2.97;2.78;;;4.80;99.90;;;;;;4996424;28;20221;-81
2024/02/07 09:53:20;;;;;;;1.40;1.40;;;4.90;99.90;;;;;;4995823;28;20212;-82
2024/02/07 09:55:47;;;;;;;1.88;1.20;;;4.90;99.90;;;;;;4996220;28;20207;-82
2024/02/07 09:58:15;;;;;;;0.40;0.40;;;4.80;99.90;;;;;;4995784;28;20221;-81
2024/02/07 10:00:42;;;;;;;2.80;0.80;;;4.80;99.90;;;;;;4996681;28;20221;-78
2024/02/07 10:03:14;;;;;;;0.80;0.80;;;4.90;99.90;;;;;;4994640;28;20201;-80
2024/02/07 10:05:46;;;;;;;0.60;0.60;;;4.90;99.90;;;;;;4995560;28;20295;-79
2024/02/07 10:08:15;;;;;;;0.40;0.40;;;5.00;99.90;;;;;;4996146;28;20224;-80
2024/02/07 10:10:46;;;;;;;0.50;0.40;;;5.10;99.90;;;;;;4999692;28;20235;-79
2024/02/07 10:13:15;;;;;;;0.50;0.40;;;5.10;99.90;;;;;;4996063;28;20203;-81
2024/02/07 10:15:43;;;;;;;2.50;2.40;;;5.20;99.90;;;;;;4995101;28;20683;-81
2024/02/07 10:18:10;;;;;;;0.50;0.50;;;5.20;99.90;;;;;;4995211;28;20220;-80
2024/02/07 10:20:36;;;;;;;0.50;0.40;;;5.20;99.90;;;;;;4995541;28;20217;-79
2024/02/07 10:23:06;;;;;;;6.07;1.05;;;5.20;99.90;;;;;;4995198;28;20201;-80
2024/02/07 10:25:35;;;;;;;0.50;0.43;;;5.10;99.90;;;;;;4995721;28;20201;-81
2024/02/07 10:28:03;;;;;;;0.50;0.40;;;5.00;99.90;;;;;;4995667;28;20260;-78
2024/02/07 10:30:30;;;;;;;1.30;1.25;;;5.00;99.90;;;;;;4995371;28;20240;-80
2024/02/07 10:32:57;;;;;;;0.50;0.40;;;5.00;99.90;;;;;;4994596;28;20212;-80
2024/02/07 10:35:23;;;;;;;0.50;0.40;;;5.10;99.90;;;;;;4993356;28;20199;-79
2024/02/07 10:37:52;;;;;;;1.63;1.52;;;5.10;99.90;;;;;;4994176;28;20708;-80
2024/02/07 10:40:21;;;;;;;0.43;0.40;;;5.20;99.90;;;;;;4995891;28;20221;-80
2024/02/07 10:42:55;;;;;;;0.40;0.40;;;5.20;99.90;;;;;;4995267;28;20295;-80
2024/02/07 10:45:22;;;;;;;0.50;0.40;;;5.30;99.90;;;;;;4995600;28;20686;-80
2024/02/07 10:47:51;;;;;;;0.50;0.40;;;5.40;99.90;;;;;;4994998;28;20197;-80
2024/02/07 10:50:18;;;;;;;0.60;0.60;;;5.50;99.90;;;;;;5003164;28;20212;-79
2024/02/07 10:52:45;;;;;;;0.70;0.70;;;5.50;99.90;;;;;;5007020;28;20191;-80
2024/02/07 10:55:14;;;;;;;1.35;1.25;;;5.50;99.90;;;;;;4997211;28;20212;-80
2024/02/07 10:57:45;;;;;;;0.50;0.40;;;5.40;99.90;;;;;;4994830;28;20311;-80
2024/02/07 11:00:14;;;;;;;0.50;0.40;;;5.40;99.90;;;;;;4995053;28;20221;-79
2024/02/07 11:02:44;;;;;;;0.50;0.40;;;5.40;99.90;;;;;;4995023;28;20715;-80
2024/02/07 11:05:11;;;;;;;0.98;0.98;;;5.50;99.90;;;;;;4996749;28;20205;-76
2024/02/07 11:07:38;;;;;;;0.50;0.40;;;5.60;99.90;;;;;;4997278;28;20256;-80
2024/02/07 11:10:06;;;;;;;0.70;0.70;;;5.50;99.90;;;;;;4997109;28;20319;-79
2024/02/07 11:12:34;;;;;;;0.80;0.80;;;5.50;99.90;;;;;;4994435;28;20284;-80
2024/02/07 11:15:03;;;;;;;0.50;0.40;;;5.50;99.90;;;;;;4994824;28;20268;-79
2024/02/07 11:17:32;;;;;;;0.50;0.50;;;5.60;99.90;;;;;;4994397;28;20221;-78
2024/02/07 11:19:59;;;;;;;0.50;0.40;;;5.60;99.90;;;;;;4994090;28;20221;-79
2024/02/07 11:22:31;;;;;;;0.50;0.40;;;5.60;99.90;;;;;;4993780;28;20196;-79
2024/02/07 11:25:00;;;;;;;1.40;1.30;;;5.70;99.90;;;;;;4995064;28;20575;-80
2024/02/07 11:27:27;;;;;;;0.50;0.40;;;5.80;99.90;;;;;;4994866;28;20205;-80
2024/02/07 11:29:55;;;;;;;0.50;0.40;;;5.80;99.90;;;;;;4994338;28;20221;-81
2024/02/07 11:32:21;;;;;;;0.50;0.50;;;5.90;99.90;;;;;;4993696;28;20201;-79
2024/02/07 11:34:54;;;;;;;0.50;0.40;;;6.00;99.90;;;;;;4994375;28;20292;-81
2024/02/07 11:37:21;;;;;;;0.50;0.40;;;6.00;99.90;;;;;;4996184;28;20224;-79
2024/02/07 11:39:50;;;;;;;0.50;0.40;;;6.10;99.90;;;;;;4994298;28;20703;-81
2024/02/07 11:42:19;;;;;;;0.50;0.40;;;6.20;99.90;;;;;;4994529;28;20661;-80
2024/02/07 11:44:53;;;;;;;1.40;1.40;;;6.10;99.90;;;;;;4994143;28;20205;-82
2024/02/07 11:47:27;;;;;;;0.50;0.40;;;6.20;99.90;;;;;;4994334;28;20632;-80
2024/02/07 11:50:02;;;;;;;0.50;0.40;;;6.30;99.90;;;;;;4994588;28;20221;-78
2024/02/07 11:52:29;;;;;;;0.50;0.40;;;6.30;99.90;;;;;;4994467;28;20279;-80
2024/02/07 11:55:02;;;;;;;0.50;0.40;;;6.40;99.90;;;;;;4994904;28;20628;-79
2024/02/07 11:57:29;;;;;;;0.50;0.40;;;6.40;99.90;;;;;;4994854;28;20228;-80
2024/02/07 11:59:59;;;;;;;0.50;0.40;;;6.50;99.90;;;;;;4994820;28;20591;-80
2024/02/07 12:02:26;;;;;;;0.50;0.40;;;6.60;99.90;;;;;;4995116;28;20208;-82
2024/02/07 12:04:53;;;;;;;1.75;1.65;;;6.50;99.90;;;;;;4998161;28;20197;-81
2024/02/07 12:07:21;;;;;;;0.50;0.40;;;6.40;99.90;;;;;;4998660;28;20199;-84
2024/02/07 12:09:48;;;;;;;2.50;2.38;;;6.30;99.90;;;;;;4998941;28;20315;-84
2024/02/07 12:12:16;;;;;;;0.50;0.40;;;6.30;99.90;;;;;;4999415;28;20197;-85
2024/02/07 12:14:43;;;;;;;0.85;0.85;;;6.30;99.90;;;;;;4992192;28;20236;-82
2024/02/07 12:17:10;;;;;;;1.95;1.85;;;6.40;99.90;;;;;;4999316;28;20657;-82
2024/02/07 12:19:37;;;;;;;0.50;0.40;;;6.50;99.90;;;;;;5004013;28;20300;-81
2024/02/07 12:22:04;;;;;;;0.50;0.40;;;6.50;99.90;;;;;;5003725;28;20268;-81
2024/02/07 12:24:34;;;;;;;0.50;0.40;;;6.70;99.90;;;;;;4998471;28;20231;-82
2024/02/07 12:27:08;;;;;;;0.50;0.40;;;6.80;99.90;;;;;;4999405;28;20202;-82
2024/02/07 12:29:35;;;;;;;0.50;0.40;;;6.80;99.90;;;;;;4999617;28;20303;-82
2024/02/07 12:32:02;;;;;;;0.77;0.77;;;6.80;99.90;;;;;;4999670;28;20275;-83
2024/02/07 12:34:29;;;;;;;0.50;0.40;;;6.80;99.90;;;;;;5005710;28;20275;-82
2024/02/07 12:36:57;;;;;;;0.63;0.63;;;6.80;99.90;;;;;;5006692;28;20240;-81
2024/02/07 12:39:24;;;;;;;1.63;1.15;;;6.90;99.90;;;;;;5000511;28;20221;-83
2024/02/07 12:41:52;;;;;;;0.50;0.40;;;7.00;99.90;;;;;;5004253;28;20277;-81
2024/02/07 12:44:19;;;;;;;0.50;0.40;;;7.00;99.90;;;;;;5004786;28;20260;-81
2024/02/07 12:46:46;;;;;;;1.50;1.40;;;7.00;99.90;;;;;;5008569;28;20748;-82
2024/02/07 12:49:13;;;;;;;3.05;1.42;;;7.00;99.90;;;;;;5000427;28;20219;-83
2024/02/07 12:51:40;;;;;;;0.50;0.40;;;7.00;99.90;;;;;;5000817;28;20533;-82
2024/02/07 12:54:07;;;;;;;0.50;0.40;;;7.00;99.90;;;;;;5001077;28;20208;-83
2024/02/07 12:56:34;;;;;;;0.47;0.40;;;7.10;99.90;;;;;;5000467;28;20264;-83
2024/02/07 12:59:02;;;;;;;0.50;0.40;;;7.10;99.90;;;;;;5005614;28;20587;-84
2024/02/07 13:01:29;;;;;;;2.22;2.13;;;7.20;99.90;;;;;;5002312;28;20199;-84
2024/02/07 13:03:56;;;;;;;3.25;1.88;;;7.10;99.90;;;;;;4997908;28;20205;-83
2024/02/07 13:06:23;;;;;;;0.50;0.40;;;7.10;99.90;;;;;;4997221;28;20576;-83
2024/02/07 13:08:51;;;;;;;0.70;0.70;;;7.10;99.90;;;;;;4996814;28;20201;-84
2024/02/07 13:11:18;;;;;;;0.50;0.40;;;7.10;99.90;;;;;;4997327;28;20208;-83
2024/02/07 13:13:44;;;;;;;0.95;0.95;;;7.00;99.90;;;;;;4997105;28;20605;-84
2024/02/07 13:16:12;;;;;;;1.13;1.05;;;6.90;99.90;;;;;;4994022;28;20205;-84
2024/02/07 13:18:39;;;;;;;0.50;0.40;;;7.00;99.90;;;;;;4995398;28;20224;-84
2024/02/07 13:21:06;;;;;;;1.13;1.02;;;7.00;99.90;;;;;;4991594;28;20198;-83
2024/02/07 13:23:34;;;;;;;0.50;0.40;;;7.00;99.90;;;;;;4996396;28;20199;-83
2024/02/07 13:26:01;;;;;;;0.50;0.40;;;7.00;99.90;;;;;;4997103;28;20567;-83
2024/02/07 13:28:28;;;;;;;3.22;3.05;;;7.10;99.90;;;;;;4996371;28;20200;-83
2024/02/07 13:30:55;;;;;;;0.73;0.70;;;7.20;99.90;;;;;;4997757;28;20212;-84
2024/02/07 13:33:23;;;;;;;0.50;0.40;;;7.30;99.90;;;;;;4997314;28;20680;-83
2024/02/07 13:35:50;;;;;;;0.50;0.40;;;7.30;99.90;;;;;;4989231;28;20728;-82
2024/02/07 13:38:16;;;;;;;0.50;0.40;;;7.50;99.90;;;;;;4996783;28;20684;-82
2024/02/07 13:40:45;;;;;;;0.50;0.40;;;7.50;99.90;;;;;;4996524;28;20308;-84
2024/02/07 13:43:12;;;;;;;0.50;0.40;;;7.60;99.90;;;;;;4995932;28;20205;-83
2024/02/07 13:45:39;;;;;;;0.50;0.40;;;7.70;99.90;;;;;;4995929;28;20215;-83
2024/02/07 13:48:06;;;;;;;1.58;1.58;;;7.70;99.90;;;;;;4996399;28;20299;-82
2024/02/07 13:50:34;;;;;;;0.50;0.40;;;7.60;99.90;;;;;;4996335;28;20217;-84
2024/02/07 13:53:04;;;;;;;1.02;1.02;;;7.50;99.90;;;;;;4996418;28;20200;-83
2024/02/07 13:55:31;;;;;;;3.40;1.95;;;7.50;99.90;;;;;;4996948;28;20653;-82
2024/02/07 13:57:57;;;;;;;0.50;0.40;;;7.50;99.90;;;;;;4996559;28;20221;-82
2024/02/07 14:00:24;;;;;;;0.50;0.40;;;7.50;99.90;;;;;;4996627;28;20220;-83
2024/02/07 14:02:51;;;;;;;0.50;0.40;;;7.40;99.90;;;;;;4996013;28;20204;-83
2024/02/07 14:05:18;;;;;;;0.50;0.50;;;7.40;99.90;;;;;;4997284;28;20201;-84